Terminal Aerodrome Forecast
Issued by NWS

Home | Current Version | Previous Version | Text Only | Print | Product List | Glossary On
Versions: 1 2 3 4 5 6 7 8 9 10 11 12 13 14 15 16 17 18 19 20 21 22 23 24 25
000
FTAK31 PANC 300536
TAFADQ
TAF
PADQ 300536Z 3006/3106 10012KT P6SM SCT015 SCT030
      TEMPO 3006/3008 BKN015
     FM300800 04005KT 6SM BR OVC012
      TEMPO 3012/3016 3SM BR OVC008
     FM302000 06006KT P6SM VCSH OVC025
     FM310300 03005KT P6SM OVC025=

USA.gov is the U.S. government's official web portal to all federal, state and local government web resources and services.